sensor_id;sensor_type;location;lat;lon;timestamp;P1;durP1;ratioP1;P2;durP2;ratioP2
51459;SDS011;37534;39.772;2.718;2022-07-23T00:00:57;5.53;;;3.60;;
51459;SDS011;37534;39.772;2.718;2022-07-23T00:03:22;4.38;;;2.80;;
51459;SDS011;37534;39.772;2.718;2022-07-23T00:05:48;3.72;;;3.38;;
51459;SDS011;37534;39.772;2.718;2022-07-23T00:08:13;4.25;;;3.45;;
51459;SDS011;37534;39.772;2.718;2022-07-23T00:10:39;4.50;;;3.35;;
51459;SDS011;37534;39.772;2.718;2022-07-23T00:13:05;3.58;;;3.08;;
51459;SDS011;37534;39.772;2.718;2022-07-23T00:15:31;3.58;;;3.28;;
51459;SDS011;37534;39.772;2.718;2022-07-23T00:17:57;3.83;;;3.35;;
51459;SDS011;37534;39.772;2.718;2022-07-23T00:20:22;4.32;;;3.70;;
51459;SDS011;37534;39.772;2.718;2022-07-23T00:22:49;4.15;;;3.22;;
51459;SDS011;37534;39.772;2.718;2022-07-23T00:25:16;3.63;;;2.90;;
51459;SDS011;37534;39.772;2.718;2022-07-23T00:27:41;3.47;;;3.17;;
51459;SDS011;37534;39.772;2.718;2022-07-23T00:30:07;3.75;;;3.15;;
51459;SDS011;37534;39.772;2.718;2022-07-23T00:32:44;4.45;;;3.58;;
51459;SDS011;37534;39.772;2.718;2022-07-23T00:35:11;2.75;;;2.50;;
51459;SDS011;37534;39.772;2.718;2022-07-23T00:37:36;4.43;;;4.03;;
51459;SDS011;37534;39.772;2.718;2022-07-23T00:40:02;5.50;;;3.83;;
51459;SDS011;37534;39.772;2.718;2022-07-23T00:42:28;3.50;;;3.20;;
51459;SDS011;37534;39.772;2.718;2022-07-23T00:44:53;5.18;;;3.42;;
51459;SDS011;37534;39.772;2.718;2022-07-23T00:47:19;4.20;;;3.45;;
51459;SDS011;37534;39.772;2.718;2022-07-23T00:49:44;4.90;;;3.63;;
51459;SDS011;37534;39.772;2.718;2022-07-23T00:52:10;3.75;;;3.08;;
51459;SDS011;37534;39.772;2.718;2022-07-23T00:54:35;4.38;;;3.45;;
51459;SDS011;37534;39.772;2.718;2022-07-23T00:57:01;4.22;;;3.83;;
51459;SDS011;37534;39.772;2.718;2022-07-23T00:59:27;3.67;;;3.25;;
51459;SDS011;37534;39.772;2.718;2022-07-23T01:01:52;4.63;;;3.97;;
51459;SDS011;37534;39.772;2.718;2022-07-23T01:04:18;4.00;;;3.40;;
51459;SDS011;37534;39.772;2.718;2022-07-23T01:06:44;7.60;;;4.35;;
51459;SDS011;37534;39.772;2.718;2022-07-23T01:09:10;5.38;;;4.00;;
51459;SDS011;37534;39.772;2.718;2022-07-23T01:11:37;5.43;;;4.70;;
51459;SDS011;37534;39.772;2.718;2022-07-23T01:16:42;5.10;;;4.60;;
51459;SDS011;37534;39.772;2.718;2022-07-23T01:19:09;4.70;;;4.20;;
51459;SDS011;37534;39.772;2.718;2022-07-23T01:21:36;9.70;;;3.72;;
51459;SDS011;37534;39.772;2.718;2022-07-23T01:24:06;3.80;;;3.38;;
51459;SDS011;37534;39.772;2.718;2022-07-23T01:26:33;3.33;;;3.03;;
51459;SDS011;37534;39.772;2.718;2022-07-23T01:28:59;3.90;;;3.60;;
51459;SDS011;37534;39.772;2.718;2022-07-23T01:31:24;6.07;;;3.78;;
51459;SDS011;37534;39.772;2.718;2022-07-23T01:33:50;4.38;;;3.97;;
51459;SDS011;37534;39.772;2.718;2022-07-23T01:36:16;3.20;;;3.00;;
51459;SDS011;37534;39.772;2.718;2022-07-23T01:38:41;3.83;;;3.45;;
51459;SDS011;37534;39.772;2.718;2022-07-23T01:41:07;5.57;;;3.42;;
51459;SDS011;37534;39.772;2.718;2022-07-23T01:43:32;4.18;;;3.55;;
51459;SDS011;37534;39.772;2.718;2022-07-23T01:45:58;4.55;;;3.97;;
51459;SDS011;37534;39.772;2.718;2022-07-23T01:48:23;6.40;;;4.18;;
51459;SDS011;37534;39.772;2.718;2022-07-23T01:50:49;4.35;;;3.95;;
51459;SDS011;37534;39.772;2.718;2022-07-23T01:53:14;4.72;;;4.22;;
51459;SDS011;37534;39.772;2.718;2022-07-23T01:55:41;5.43;;;4.68;;
51459;SDS011;37534;39.772;2.718;2022-07-23T01:58:07;6.40;;;5.03;;
51459;SDS011;37534;39.772;2.718;2022-07-23T02:00:32;4.35;;;4.05;;
51459;SDS011;37534;39.772;2.718;2022-07-23T02:02:58;6.72;;;4.97;;
51459;SDS011;37534;39.772;2.718;2022-07-23T02:05:24;4.00;;;3.60;;
51459;SDS011;37534;39.772;2.718;2022-07-23T02:07:50;6.55;;;4.57;;
51459;SDS011;37534;39.772;2.718;2022-07-23T02:10:16;5.82;;;5.00;;
51459;SDS011;37534;39.772;2.718;2022-07-23T02:12:42;4.93;;;4.50;;
51459;SDS011;37534;39.772;2.718;2022-07-23T02:15:07;4.28;;;3.88;;
51459;SDS011;37534;39.772;2.718;2022-07-23T02:17:33;5.43;;;4.50;;
51459;SDS011;37534;39.772;2.718;2022-07-23T02:19:59;9.73;;;4.65;;
51459;SDS011;37534;39.772;2.718;2022-07-23T02:22:24;3.70;;;3.40;;
51459;SDS011;37534;39.772;2.718;2022-07-23T02:24:50;6.43;;;4.00;;
51459;SDS011;37534;39.772;2.718;2022-07-23T02:27:15;4.20;;;3.83;;
51459;SDS011;37534;39.772;2.718;2022-07-23T02:29:41;4.97;;;4.47;;
51459;SDS011;37534;39.772;2.718;2022-07-23T02:32:06;5.15;;;4.75;;
51459;SDS011;37534;39.772;2.718;2022-07-23T02:34:32;5.78;;;4.70;;
51459;SDS011;37534;39.772;2.718;2022-07-23T02:36:57;4.63;;;4.22;;
51459;SDS011;37534;39.772;2.718;2022-07-23T02:39:23;5.45;;;4.20;;
51459;SDS011;37534;39.772;2.718;2022-07-23T02:41:48;7.90;;;4.15;;
51459;SDS011;37534;39.772;2.718;2022-07-23T02:44:14;4.35;;;3.97;;
51459;SDS011;37534;39.772;2.718;2022-07-23T02:46:39;4.60;;;3.95;;
51459;SDS011;37534;39.772;2.718;2022-07-23T02:49:05;4.95;;;4.45;;
51459;SDS011;37534;39.772;2.718;2022-07-23T02:51:30;5.30;;;4.80;;
51459;SDS011;37534;39.772;2.718;2022-07-23T02:53:56;4.90;;;4.50;;
51459;SDS011;37534;39.772;2.718;2022-07-23T02:56:21;12.18;;;4.75;;
51459;SDS011;37534;39.772;2.718;2022-07-23T02:58:47;6.75;;;3.85;;
51459;SDS011;37534;39.772;2.718;2022-07-23T03:01:13;6.95;;;4.63;;
51459;SDS011;37534;39.772;2.718;2022-07-23T03:03:38;3.75;;;3.45;;
51459;SDS011;37534;39.772;2.718;2022-07-23T03:06:06;4.22;;;3.70;;
51459;SDS011;37534;39.772;2.718;2022-07-23T03:08:31;4.88;;;4.38;;
51459;SDS011;37534;39.772;2.718;2022-07-23T03:10:57;4.63;;;4.32;;
51459;SDS011;37534;39.772;2.718;2022-07-23T03:13:22;5.80;;;4.13;;
51459;SDS011;37534;39.772;2.718;2022-07-23T03:15:48;4.50;;;4.10;;
51459;SDS011;37534;39.772;2.718;2022-07-23T03:18:14;3.88;;;3.45;;
51459;SDS011;37534;39.772;2.718;2022-07-23T03:20:39;4.00;;;3.60;;
51459;SDS011;37534;39.772;2.718;2022-07-23T03:23:05;9.30;;;4.85;;
51459;SDS011;37534;39.772;2.718;2022-07-23T03:25:31;4.25;;;3.85;;
51459;SDS011;37534;39.772;2.718;2022-07-23T03:27:59;7.25;;;4.03;;
51459;SDS011;37534;39.772;2.718;2022-07-23T03:30:25;5.40;;;4.85;;
51459;SDS011;37534;39.772;2.718;2022-07-23T03:32:50;6.03;;;5.50;;
51459;SDS011;37534;39.772;2.718;2022-07-23T03:35:16;6.82;;;5.20;;
51459;SDS011;37534;39.772;2.718;2022-07-23T03:37:41;4.72;;;4.32;;
51459;SDS011;37534;39.772;2.718;2022-07-23T03:40:07;5.47;;;4.97;;
51459;SDS011;37534;39.772;2.718;2022-07-23T03:42:33;4.95;;;4.43;;
51459;SDS011;37534;39.772;2.718;2022-07-23T03:44:58;9.20;;;4.35;;
51459;SDS011;37534;39.772;2.718;2022-07-23T03:47:24;5.03;;;4.63;;
51459;SDS011;37534;39.772;2.718;2022-07-23T03:49:49;4.60;;;3.80;;
51459;SDS011;37534;39.772;2.718;2022-07-23T03:52:15;11.25;;;4.68;;
51459;SDS011;37534;39.772;2.718;2022-07-23T03:54:40;5.30;;;4.80;;
51459;SDS011;37534;39.772;2.718;2022-07-23T03:57:06;6.13;;;5.10;;
51459;SDS011;37534;39.772;2.718;2022-07-23T03:59:32;5.80;;;5.40;;
51459;SDS011;37534;39.772;2.718;2022-07-23T04:01:57;5.65;;;4.75;;
51459;SDS011;37534;39.772;2.718;2022-07-23T04:04:23;13.52;;;11.82;;
51459;SDS011;37534;39.772;2.718;2022-07-23T04:06:48;12.30;;;7.65;;
51459;SDS011;37534;39.772;2.718;2022-07-23T04:09:14;7.55;;;5.35;;
51459;SDS011;37534;39.772;2.718;2022-07-23T04:11:40;6.13;;;4.82;;
51459;SDS011;37534;39.772;2.718;2022-07-23T04:14:05;5.53;;;4.88;;
51459;SDS011;37534;39.772;2.718;2022-07-23T04:16:31;8.20;;;4.30;;
51459;SDS011;37534;39.772;2.718;2022-07-23T04:18:57;5.95;;;4.20;;
51459;SDS011;37534;39.772;2.718;2022-07-23T04:21:23;4.13;;;3.83;;
51459;SDS011;37534;39.772;2.718;2022-07-23T04:23:49;4.40;;;4.00;;
51459;SDS011;37534;39.772;2.718;2022-07-23T04:26:15;5.38;;;3.97;;
51459;SDS011;37534;39.772;2.718;2022-07-23T04:28:40;5.82;;;4.13;;
51459;SDS011;37534;39.772;2.718;2022-07-23T04:31:06;3.90;;;3.65;;
51459;SDS011;37534;39.772;2.718;2022-07-23T04:33:32;4.03;;;3.25;;
51459;SDS011;37534;39.772;2.718;2022-07-23T04:35:58;7.85;;;4.72;;
51459;SDS011;37534;39.772;2.718;2022-07-23T04:38:23;7.70;;;4.72;;
51459;SDS011;37534;39.772;2.718;2022-07-23T04:40:49;7.40;;;4.57;;
51459;SDS011;37534;39.772;2.718;2022-07-23T04:43:14;4.93;;;4.22;;
51459;SDS011;37534;39.772;2.718;2022-07-23T04:45:40;5.13;;;4.20;;
51459;SDS011;37534;39.772;2.718;2022-07-23T04:48:06;11.43;;;4.20;;
51459;SDS011;37534;39.772;2.718;2022-07-23T04:50:31;7.75;;;4.38;;
51459;SDS011;37534;39.772;2.718;2022-07-23T04:52:57;7.38;;;3.85;;
51459;SDS011;37534;39.772;2.718;2022-07-23T04:55:22;4.20;;;3.90;;
51459;SDS011;37534;39.772;2.718;2022-07-23T04:57:48;6.28;;;3.75;;
51459;SDS011;37534;39.772;2.718;2022-07-23T05:00:14;9.38;;;4.22;;
51459;SDS011;37534;39.772;2.718;2022-07-23T05:02:39;8.32;;;3.75;;
51459;SDS011;37534;39.772;2.718;2022-07-23T05:05:05;4.68;;;3.80;;
51459;SDS011;37534;39.772;2.718;2022-07-23T05:07:31;4.30;;;3.13;;
51459;SDS011;37534;39.772;2.718;2022-07-23T05:09:56;4.53;;;3.53;;
51459;SDS011;37534;39.772;2.718;2022-07-23T05:12:22;5.50;;;3.60;;
51459;SDS011;37534;39.772;2.718;2022-07-23T05:14:47;7.20;;;3.83;;
51459;SDS011;37534;39.772;2.718;2022-07-23T05:17:13;8.00;;;3.88;;
51459;SDS011;37534;39.772;2.718;2022-07-23T05:19:38;4.93;;;3.88;;
51459;SDS011;37534;39.772;2.718;2022-07-23T05:22:04;8.85;;;4.05;;
51459;SDS011;37534;39.772;2.718;2022-07-23T05:24:30;9.23;;;4.72;;
51459;SDS011;37534;39.772;2.718;2022-07-23T05:26:55;8.13;;;5.35;;
51459;SDS011;37534;39.772;2.718;2022-07-23T05:29:21;4.97;;;4.50;;
51459;SDS011;37534;39.772;2.718;2022-07-23T05:31:46;7.97;;;4.78;;
51459;SDS011;37534;39.772;2.718;2022-07-23T05:34:12;6.88;;;4.22;;
51459;SDS011;37534;39.772;2.718;2022-07-23T05:36:37;7.07;;;4.03;;
51459;SDS011;37534;39.772;2.718;2022-07-23T05:39:03;5.45;;;4.05;;
51459;SDS011;37534;39.772;2.718;2022-07-23T05:41:29;9.88;;;4.32;;
51459;SDS011;37534;39.772;2.718;2022-07-23T05:43:54;13.35;;;4.63;;
51459;SDS011;37534;39.772;2.718;2022-07-23T05:46:20;5.53;;;4.20;;
51459;SDS011;37534;39.772;2.718;2022-07-23T05:48:45;5.18;;;3.65;;
51459;SDS011;37534;39.772;2.718;2022-07-23T05:51:18;5.15;;;3.90;;
51459;SDS011;37534;39.772;2.718;2022-07-23T05:53:45;6.03;;;3.83;;
51459;SDS011;37534;39.772;2.718;2022-07-23T05:56:10;7.10;;;4.15;;
51459;SDS011;37534;39.772;2.718;2022-07-23T05:58:37;4.85;;;4.28;;
51459;SDS011;37534;39.772;2.718;2022-07-23T06:01:03;8.23;;;4.45;;
51459;SDS011;37534;39.772;2.718;2022-07-23T06:03:28;13.50;;;4.32;;
51459;SDS011;37534;39.772;2.718;2022-07-23T06:05:54;7.70;;;4.22;;
51459;SDS011;37534;39.772;2.718;2022-07-23T06:08:19;4.47;;;4.07;;
51459;SDS011;37534;39.772;2.718;2022-07-23T06:10:45;6.35;;;3.03;;
51459;SDS011;37534;39.772;2.718;2022-07-23T06:13:10;5.00;;;4.05;;
51459;SDS011;37534;39.772;2.718;2022-07-23T06:15:36;6.85;;;3.42;;
51459;SDS011;37534;39.772;2.718;2022-07-23T06:18:02;3.70;;;3.45;;
51459;SDS011;37534;39.772;2.718;2022-07-23T06:20:27;6.05;;;2.92;;
51459;SDS011;37534;39.772;2.718;2022-07-23T06:22:53;3.75;;;3.05;;
51459;SDS011;37534;39.772;2.718;2022-07-23T06:25:18;8.45;;;3.63;;
51459;SDS011;37534;39.772;2.718;2022-07-23T06:27:45;4.18;;;3.28;;
51459;SDS011;37534;39.772;2.718;2022-07-23T06:30:12;5.78;;;3.28;;
51459;SDS011;37534;39.772;2.718;2022-07-23T06:32:38;5.00;;;3.45;;
51459;SDS011;37534;39.772;2.718;2022-07-23T06:35:04;5.25;;;3.45;;
51459;SDS011;37534;39.772;2.718;2022-07-23T06:37:30;8.20;;;2.65;;
51459;SDS011;37534;39.772;2.718;2022-07-23T06:39:55;6.78;;;3.58;;
51459;SDS011;37534;39.772;2.718;2022-07-23T06:42:21;6.05;;;2.90;;
51459;SDS011;37534;39.772;2.718;2022-07-23T06:44:46;6.82;;;3.25;;
51459;SDS011;37534;39.772;2.718;2022-07-23T06:47:12;3.75;;;3.22;;
51459;SDS011;37534;39.772;2.718;2022-07-23T06:49:38;24.33;;;3.67;;
51459;SDS011;37534;39.772;2.718;2022-07-23T06:52:06;3.95;;;2.50;;
51459;SDS011;37534;39.772;2.718;2022-07-23T06:54:32;4.72;;;3.10;;
51459;SDS011;37534;39.772;2.718;2022-07-23T06:56:57;3.83;;;2.60;;
51459;SDS011;37534;39.772;2.718;2022-07-23T06:59:23;2.97;;;2.67;;
51459;SDS011;37534;39.772;2.718;2022-07-23T07:01:48;10.63;;;2.85;;
51459;SDS011;37534;39.772;2.718;2022-07-23T07:04:14;11.73;;;5.00;;
51459;SDS011;37534;39.772;2.718;2022-07-23T07:06:40;7.05;;;3.88;;
51459;SDS011;37534;39.772;2.718;2022-07-23T07:09:05;3.88;;;3.58;;
51459;SDS011;37534;39.772;2.718;2022-07-23T07:11:31;6.72;;;3.17;;
51459;SDS011;37534;39.772;2.718;2022-07-23T07:13:57;4.32;;;3.13;;
51459;SDS011;37534;39.772;2.718;2022-07-23T07:16:22;7.28;;;3.25;;
51459;SDS011;37534;39.772;2.718;2022-07-23T07:18:48;5.57;;;3.42;;
51459;SDS011;37534;39.772;2.718;2022-07-23T07:21:13;5.85;;;3.95;;
51459;SDS011;37534;39.772;2.718;2022-07-23T07:23:39;2.78;;;2.58;;
51459;SDS011;37534;39.772;2.718;2022-07-23T07:26:04;2.92;;;2.72;;
51459;SDS011;37534;39.772;2.718;2022-07-23T07:28:30;3.90;;;3.55;;
51459;SDS011;37534;39.772;2.718;2022-07-23T07:30:56;7.65;;;3.45;;
51459;SDS011;37534;39.772;2.718;2022-07-23T07:33:21;5.38;;;4.40;;
51459;SDS011;37534;39.772;2.718;2022-07-23T07:35:47;7.68;;;4.00;;
51459;SDS011;37534;39.772;2.718;2022-07-23T07:38:12;3.38;;;3.05;;
51459;SDS011;37534;39.772;2.718;2022-07-23T07:40:38;3.88;;;3.58;;
51459;SDS011;37534;39.772;2.718;2022-07-23T07:43:04;3.88;;;3.42;;
51459;SDS011;37534;39.772;2.718;2022-07-23T07:45:29;8.80;;;4.10;;
51459;SDS011;37534;39.772;2.718;2022-07-23T07:47:55;9.23;;;3.42;;
51459;SDS011;37534;39.772;2.718;2022-07-23T07:50:21;8.15;;;2.97;;
51459;SDS011;37534;39.772;2.718;2022-07-23T07:52:47;4.47;;;2.80;;
51459;SDS011;37534;39.772;2.718;2022-07-23T07:55:13;2.60;;;2.40;;
51459;SDS011;37534;39.772;2.718;2022-07-23T07:57:39;3.60;;;2.88;;
51459;SDS011;37534;39.772;2.718;2022-07-23T08:00:06;3.75;;;2.17;;
51459;SDS011;37534;39.772;2.718;2022-07-23T08:05:13;2.75;;;2.05;;
51459;SDS011;37534;39.772;2.718;2022-07-23T08:07:39;4.18;;;2.47;;
51459;SDS011;37534;39.772;2.718;2022-07-23T08:10:06;3.00;;;2.63;;
51459;SDS011;37534;39.772;2.718;2022-07-23T08:12:43;3.28;;;2.60;;
51459;SDS011;37534;39.772;2.718;2022-07-23T08:15:10;2.35;;;1.85;;
51459;SDS011;37534;39.772;2.718;2022-07-23T08:17:37;5.60;;;2.63;;
51459;SDS011;37534;39.772;2.718;2022-07-23T08:20:03;2.40;;;2.20;;
51459;SDS011;37534;39.772;2.718;2022-07-23T08:25:23;1.95;;;1.83;;
51459;SDS011;37534;39.772;2.718;2022-07-23T08:27:50;4.10;;;2.70;;
51459;SDS011;37534;39.772;2.718;2022-07-23T08:30:17;10.43;;;2.60;;
51459;SDS011;37534;39.772;2.718;2022-07-23T08:32:50;6.15;;;2.15;;
51459;SDS011;37534;39.772;2.718;2022-07-23T08:35:27;2.90;;;2.28;;
51459;SDS011;37534;39.772;2.718;2022-07-23T08:38:01;3.25;;;2.30;;
51459;SDS011;37534;39.772;2.718;2022-07-23T08:40:36;2.33;;;2.22;;
51459;SDS011;37534;39.772;2.718;2022-07-23T08:43:04;4.47;;;2.17;;
51459;SDS011;37534;39.772;2.718;2022-07-23T08:45:31;2.08;;;1.98;;
51459;SDS011;37534;39.772;2.718;2022-07-23T08:48:01;2.60;;;2.22;;
51459;SDS011;37534;39.772;2.718;2022-07-23T08:50:28;3.25;;;2.35;;
51459;SDS011;37534;39.772;2.718;2022-07-23T08:52:54;4.10;;;2.70;;
51459;SDS011;37534;39.772;2.718;2022-07-23T08:55:22;2.83;;;2.40;;
51459;SDS011;37534;39.772;2.718;2022-07-23T08:57:48;4.30;;;2.58;;
51459;SDS011;37534;39.772;2.718;2022-07-23T09:00:15;4.50;;;3.05;;
51459;SDS011;37534;39.772;2.718;2022-07-23T09:02:42;4.25;;;2.35;;
51459;SDS011;37534;39.772;2.718;2022-07-23T09:05:09;5.18;;;3.28;;
51459;SDS011;37534;39.772;2.718;2022-07-23T09:08:02;3.15;;;2.78;;
51459;SDS011;37534;39.772;2.718;2022-07-23T09:13:25;2.90;;;2.53;;
51459;SDS011;37534;39.772;2.718;2022-07-23T09:16:00;3.22;;;2.90;;
51459;SDS011;37534;39.772;2.718;2022-07-23T09:18:29;4.63;;;2.90;;
51459;SDS011;37534;39.772;2.718;2022-07-23T09:24:02;4.93;;;2.78;;
51459;SDS011;37534;39.772;2.718;2022-07-23T09:31:49;4.55;;;2.92;;
51459;SDS011;37534;39.772;2.718;2022-07-23T09:36:46;3.15;;;2.85;;
51459;SDS011;37534;39.772;2.718;2022-07-23T09:39:13;2.13;;;2.03;;
51459;SDS011;37534;39.772;2.718;2022-07-23T09:41:44;3.88;;;2.60;;
51459;SDS011;37534;39.772;2.718;2022-07-23T09:44:18;6.23;;;2.90;;
51459;SDS011;37534;39.772;2.718;2022-07-23T09:46:45;3.13;;;2.78;;
51459;SDS011;37534;39.772;2.718;2022-07-23T09:49:20;6.20;;;3.17;;
51459;SDS011;37534;39.772;2.718;2022-07-23T09:56:53;3.35;;;2.58;;
51459;SDS011;37534;39.772;2.718;2022-07-23T09:59:22;3.67;;;2.40;;
51459;SDS011;37534;39.772;2.718;2022-07-23T10:01:50;10.77;;;2.40;;
51459;SDS011;37534;39.772;2.718;2022-07-23T10:04:17;3.55;;;2.53;;
51459;SDS011;37534;39.772;2.718;2022-07-23T10:06:43;4.22;;;2.33;;
51459;SDS011;37534;39.772;2.718;2022-07-23T10:09:11;3.03;;;2.72;;
51459;SDS011;37534;39.772;2.718;2022-07-23T10:11:37;2.65;;;2.10;;
51459;SDS011;37534;39.772;2.718;2022-07-23T10:14:04;2.20;;;2.00;;
51459;SDS011;37534;39.772;2.718;2022-07-23T10:16:30;5.03;;;2.75;;
51459;SDS011;37534;39.772;2.718;2022-07-23T10:18:56;2.88;;;2.67;;
51459;SDS011;37534;39.772;2.718;2022-07-23T10:21:27;4.25;;;2.65;;
51459;SDS011;37534;39.772;2.718;2022-07-23T10:30:07;5.40;;;2.72;;
51459;SDS011;37534;39.772;2.718;2022-07-23T10:32:40;4.63;;;3.22;;
51459;SDS011;37534;39.772;2.718;2022-07-23T10:35:33;7.18;;;2.67;;
51459;SDS011;37534;39.772;2.718;2022-07-23T10:38:11;3.53;;;3.22;;
51459;SDS011;37534;39.772;2.718;2022-07-23T10:43:38;7.05;;;3.75;;
51459;SDS011;37534;39.772;2.718;2022-07-23T10:46:37;3.10;;;2.70;;
51459;SDS011;37534;39.772;2.718;2022-07-23T10:54:40;5.18;;;3.35;;
51459;SDS011;37534;39.772;2.718;2022-07-23T10:57:18;4.03;;;3.30;;
51459;SDS011;37534;39.772;2.718;2022-07-23T11:02:44;8.00;;;3.80;;
51459;SDS011;37534;39.772;2.718;2022-07-23T11:05:13;4.72;;;3.22;;
51459;SDS011;37534;39.772;2.718;2022-07-23T11:10:40;4.43;;;2.78;;
51459;SDS011;37534;39.772;2.718;2022-07-23T11:13:30;3.75;;;2.83;;
51459;SDS011;37534;39.772;2.718;2022-07-23T11:26:50;4.50;;;2.72;;
51459;SDS011;37534;39.772;2.718;2022-07-23T11:34:53;2.78;;;2.13;;
51459;SDS011;37534;39.772;2.718;2022-07-23T11:40:06;7.07;;;2.40;;
51459;SDS011;37534;39.772;2.718;2022-07-23T11:42:34;2.45;;;2.25;;
51459;SDS011;37534;39.772;2.718;2022-07-23T11:45:02;4.00;;;2.50;;
51459;SDS011;37534;39.772;2.718;2022-07-23T11:47:28;7.78;;;2.83;;
51459;SDS011;37534;39.772;2.718;2022-07-23T11:52:19;3.33;;;2.40;;
51459;SDS011;37534;39.772;2.718;2022-07-23T11:54:58;2.25;;;2.13;;
51459;SDS011;37534;39.772;2.718;2022-07-23T11:59:54;1.77;;;1.65;;
51459;SDS011;37534;39.772;2.718;2022-07-23T12:02:22;6.97;;;2.53;;
51459;SDS011;37534;39.772;2.718;2022-07-23T12:04:50;3.45;;;1.92;;
51459;SDS011;37534;39.772;2.718;2022-07-23T12:09:48;7.90;;;2.45;;
51459;SDS011;37534;39.772;2.718;2022-07-23T12:12:14;5.88;;;2.25;;
51459;SDS011;37534;39.772;2.718;2022-07-23T12:14:54;5.13;;;2.50;;
51459;SDS011;37534;39.772;2.718;2022-07-23T12:17:30;2.42;;;2.25;;
51459;SDS011;37534;39.772;2.718;2022-07-23T12:19:57;2.28;;;1.90;;
51459;SDS011;37534;39.772;2.718;2022-07-23T12:22:24;2.17;;;2.00;;
51459;SDS011;37534;39.772;2.718;2022-07-23T12:27:24;8.10;;;2.55;;
51459;SDS011;37534;39.772;2.718;2022-07-23T12:29:50;2.72;;;2.40;;
51459;SDS011;37534;39.772;2.718;2022-07-23T12:32:17;6.45;;;2.20;;
51459;SDS011;37534;39.772;2.718;2022-07-23T12:34:43;5.28;;;2.25;;
51459;SDS011;37534;39.772;2.718;2022-07-23T12:37:24;7.40;;;2.10;;
51459;SDS011;37534;39.772;2.718;2022-07-23T12:39:53;2.00;;;1.90;;
51459;SDS011;37534;39.772;2.718;2022-07-23T12:42:19;3.03;;;2.33;;
51459;SDS011;37534;39.772;2.718;2022-07-23T12:45:07;8.70;;;2.22;;
51459;SDS011;37534;39.772;2.718;2022-07-23T12:48:02;1.98;;;1.88;;
51459;SDS011;37534;39.772;2.718;2022-07-23T12:53:05;2.60;;;2.10;;
51459;SDS011;37534;39.772;2.718;2022-07-23T12:55:38;2.03;;;1.92;;
51459;SDS011;37534;39.772;2.718;2022-07-23T12:58:12;4.78;;;2.75;;
51459;SDS011;37534;39.772;2.718;2022-07-23T13:00:54;3.38;;;2.60;;
51459;SDS011;37534;39.772;2.718;2022-07-23T13:03:40;2.92;;;2.25;;
51459;SDS011;37534;39.772;2.718;2022-07-23T13:06:08;6.18;;;2.45;;
51459;SDS011;37534;39.772;2.718;2022-07-23T13:08:35;4.40;;;2.35;;
51459;SDS011;37534;39.772;2.718;2022-07-23T13:11:02;2.88;;;2.65;;
51459;SDS011;37534;39.772;2.718;2022-07-23T13:13:30;2.65;;;2.30;;
51459;SDS011;37534;39.772;2.718;2022-07-23T13:15:57;2.63;;;2.00;;
51459;SDS011;37534;39.772;2.718;2022-07-23T13:18:24;3.03;;;2.10;;
51459;SDS011;37534;39.772;2.718;2022-07-23T13:20:50;4.30;;;2.33;;
51459;SDS011;37534;39.772;2.718;2022-07-23T13:23:16;2.90;;;2.20;;
51459;SDS011;37534;39.772;2.718;2022-07-23T13:25:42;3.30;;;2.45;;
51459;SDS011;37534;39.772;2.718;2022-07-23T13:28:08;3.63;;;2.22;;
51459;SDS011;37534;39.772;2.718;2022-07-23T13:30:34;6.35;;;2.78;;
51459;SDS011;37534;39.772;2.718;2022-07-23T13:33:01;2.05;;;1.95;;
51459;SDS011;37534;39.772;2.718;2022-07-23T13:35:28;10.60;;;2.60;;
51459;SDS011;37534;39.772;2.718;2022-07-23T13:37:54;3.58;;;2.25;;
51459;SDS011;37534;39.772;2.718;2022-07-23T13:40:19;4.53;;;2.17;;
51459;SDS011;37534;39.772;2.718;2022-07-23T13:42:45;4.20;;;2.63;;
51459;SDS011;37534;39.772;2.718;2022-07-23T13:45:10;6.28;;;2.50;;
51459;SDS011;37534;39.772;2.718;2022-07-23T13:47:36;2.65;;;2.05;;
51459;SDS011;37534;39.772;2.718;2022-07-23T13:50:01;2.03;;;1.92;;
51459;SDS011;37534;39.772;2.718;2022-07-23T13:52:28;1.85;;;1.75;;
51459;SDS011;37534;39.772;2.718;2022-07-23T13:54:53;13.25;;;2.78;;
51459;SDS011;37534;39.772;2.718;2022-07-23T13:57:19;2.03;;;1.90;;
51459;SDS011;37534;39.772;2.718;2022-07-23T13:59:44;3.33;;;2.20;;
51459;SDS011;37534;39.772;2.718;2022-07-23T14:02:10;3.22;;;2.00;;
51459;SDS011;37534;39.772;2.718;2022-07-23T14:04:40;1.95;;;1.85;;
51459;SDS011;37534;39.772;2.718;2022-07-23T14:07:06;5.72;;;2.00;;
51459;SDS011;37534;39.772;2.718;2022-07-23T14:09:31;2.10;;;2.00;;
51459;SDS011;37534;39.772;2.718;2022-07-23T14:11:58;2.72;;;2.13;;
51459;SDS011;37534;39.772;2.718;2022-07-23T14:14:24;3.03;;;2.03;;
51459;SDS011;37534;39.772;2.718;2022-07-23T14:16:50;3.15;;;2.63;;
51459;SDS011;37534;39.772;2.718;2022-07-23T14:19:16;1.88;;;1.75;;
51459;SDS011;37534;39.772;2.718;2022-07-23T14:21:41;2.70;;;2.20;;
51459;SDS011;37534;39.772;2.718;2022-07-23T14:24:07;4.90;;;2.38;;
51459;SDS011;37534;39.772;2.718;2022-07-23T14:26:33;3.05;;;2.17;;
51459;SDS011;37534;39.772;2.718;2022-07-23T14:28:58;4.13;;;2.28;;
51459;SDS011;37534;39.772;2.718;2022-07-23T14:31:24;4.03;;;2.60;;
51459;SDS011;37534;39.772;2.718;2022-07-23T14:33:50;3.42;;;2.28;;
51459;SDS011;37534;39.772;2.718;2022-07-23T14:36:15;4.75;;;2.05;;
51459;SDS011;37534;39.772;2.718;2022-07-23T14:38:41;3.85;;;2.58;;
51459;SDS011;37534;39.772;2.718;2022-07-23T14:41:07;2.63;;;1.80;;
51459;SDS011;37534;39.772;2.718;2022-07-23T14:43:36;2.20;;;1.80;;
51459;SDS011;37534;39.772;2.718;2022-07-23T14:46:02;1.90;;;1.80;;
51459;SDS011;37534;39.772;2.718;2022-07-23T14:48:27;3.85;;;2.25;;
51459;SDS011;37534;39.772;2.718;2022-07-23T14:50:53;2.70;;;2.13;;
51459;SDS011;37534;39.772;2.718;2022-07-23T14:53:18;5.05;;;2.10;;
51459;SDS011;37534;39.772;2.718;2022-07-23T14:55:44;7.63;;;2.45;;
51459;SDS011;37534;39.772;2.718;2022-07-23T14:58:09;4.18;;;2.45;;
51459;SDS011;37534;39.772;2.718;2022-07-23T15:00:35;2.95;;;2.33;;
51459;SDS011;37534;39.772;2.718;2022-07-23T15:03:01;2.90;;;2.13;;
51459;SDS011;37534;39.772;2.718;2022-07-23T15:05:27;2.53;;;1.88;;
51459;SDS011;37534;39.772;2.718;2022-07-23T15:07:53;4.53;;;2.28;;
51459;SDS011;37534;39.772;2.718;2022-07-23T15:10:20;4.57;;;2.70;;
51459;SDS011;37534;39.772;2.718;2022-07-23T15:12:45;6.32;;;2.22;;
51459;SDS011;37534;39.772;2.718;2022-07-23T15:15:11;3.70;;;2.17;;
51459;SDS011;37534;39.772;2.718;2022-07-23T15:17:38;2.35;;;2.10;;
51459;SDS011;37534;39.772;2.718;2022-07-23T15:20:04;2.83;;;2.63;;
51459;SDS011;37534;39.772;2.718;2022-07-23T15:22:30;4.15;;;2.78;;
51459;SDS011;37534;39.772;2.718;2022-07-23T15:24:55;2.33;;;2.13;;
51459;SDS011;37534;39.772;2.718;2022-07-23T15:27:21;5.75;;;2.60;;
51459;SDS011;37534;39.772;2.718;2022-07-23T15:29:47;2.92;;;2.67;;
51459;SDS011;37534;39.772;2.718;2022-07-23T15:32:12;4.57;;;2.63;;
51459;SDS011;37534;39.772;2.718;2022-07-23T15:34:38;2.10;;;2.00;;
51459;SDS011;37534;39.772;2.718;2022-07-23T15:37:04;5.28;;;2.55;;
51459;SDS011;37534;39.772;2.718;2022-07-23T15:39:33;6.93;;;2.25;;
51459;SDS011;37534;39.772;2.718;2022-07-23T15:42:02;3.65;;;2.22;;
51459;SDS011;37534;39.772;2.718;2022-07-23T15:44:29;2.72;;;2.33;;
51459;SDS011;37534;39.772;2.718;2022-07-23T15:46:54;2.35;;;2.15;;
51459;SDS011;37534;39.772;2.718;2022-07-23T15:49:21;3.95;;;2.55;;
51459;SDS011;37534;39.772;2.718;2022-07-23T15:51:47;3.30;;;2.65;;
51459;SDS011;37534;39.772;2.718;2022-07-23T15:54:12;3.80;;;2.45;;
51459;SDS011;37534;39.772;2.718;2022-07-23T15:56:38;3.10;;;2.13;;
51459;SDS011;37534;39.772;2.718;2022-07-23T15:59:04;6.57;;;2.38;;
51459;SDS011;37534;39.772;2.718;2022-07-23T16:01:29;3.03;;;2.55;;
51459;SDS011;37534;39.772;2.718;2022-07-23T16:03:58;3.53;;;2.40;;
51459;SDS011;37534;39.772;2.718;2022-07-23T16:06:26;2.20;;;2.00;;